createdAt,value
2022-08-26T00:02:07.139Z,2.97
2022-08-26T00:04:35.274Z,3.50
2022-08-26T00:07:05.611Z,2.90
2022-08-26T00:09:38.893Z,3.90
2022-08-26T00:12:09.350Z,3.07
2022-08-26T00:14:40.820Z,3.60
2022-08-26T00:17:09.275Z,3.13
2022-08-26T00:19:37.423Z,3.47
2022-08-26T00:22:07.341Z,2.20
2022-08-26T00:24:35.566Z,3.97
2022-08-26T00:27:03.727Z,3.93
2022-08-26T00:29:37.396Z,3.07
2022-08-26T00:32:06.431Z,3.50
2022-08-26T00:34:34.712Z,3.30
2022-08-26T00:37:02.697Z,2.90
2022-08-26T00:39:33.140Z,3.33
2022-08-26T00:42:01.287Z,3.17
2022-08-26T00:44:30.345Z,2.63
2022-08-26T00:47:03.700Z,3.43
2022-08-26T00:49:38.130Z,3.50
2022-08-26T00:52:11.936Z,2.40
2022-08-26T00:54:47.652Z,3.90
2022-08-26T00:57:17.992Z,3.30
2022-08-26T00:59:48.272Z,3.17
2022-08-26T01:02:20.975Z,2.70
2022-08-26T01:04:54.416Z,3.77
2022-08-26T01:07:25.772Z,3.97
2022-08-26T01:09:55.577Z,4.57
2022-08-26T01:12:25.228Z,2.40
2022-08-26T01:14:53.614Z,2.93
2022-08-26T01:17:21.627Z,2.10
2022-08-26T01:19:52.464Z,3.20
2022-08-26T01:22:28.103Z,3.10
2022-08-26T01:24:58.044Z,2.83
2022-08-26T01:27:32.514Z,3.73
2022-08-26T01:30:01.651Z,3.37
2022-08-26T01:32:32.775Z,3.37
2022-08-26T01:35:01.891Z,2.97
2022-08-26T01:37:34.956Z,3.10
2022-08-26T01:40:06.704Z,3.23
2022-08-26T01:42:35.544Z,2.87
2022-08-26T01:45:08.177Z,3.80
2022-08-26T01:47:37.816Z,3.10
2022-08-26T01:50:10.249Z,3.23
2022-08-26T01:52:42.710Z,4.10
2022-08-26T01:55:15.275Z,3.20
2022-08-26T01:58:02.326Z,3.10
2022-08-26T02:00:30.813Z,2.67
2022-08-26T02:03:13.340Z,2.97
2022-08-26T02:05:41.434Z,2.80
2022-08-26T02:08:11.993Z,3.33
2022-08-26T02:10:43.271Z,2.67
2022-08-26T02:13:12.328Z,3.30
2022-08-26T02:15:43.867Z,2.93
2022-08-26T02:18:14.167Z,2.20
2022-08-26T02:20:42.187Z,2.90
2022-08-26T02:23:10.078Z,4.37
2022-08-26T02:26:17.966Z,3.53
2022-08-26T02:28:51.080Z,2.80
2022-08-26T02:31:19.841Z,3.20
2022-08-26T02:33:47.832Z,3.30
2022-08-26T02:36:21.004Z,2.60
2022-08-26T02:38:48.981Z,2.60
2022-08-26T02:41:18.581Z,3.30
2022-08-26T02:43:46.515Z,3.03
2022-08-26T02:46:21.561Z,2.70
2022-08-26T02:48:56.381Z,2.43
2022-08-26T02:51:24.263Z,2.70
2022-08-26T02:53:52.160Z,3.07
2022-08-26T02:56:21.457Z,2.37
2022-08-26T02:58:49.718Z,2.77
2022-08-26T03:01:22.909Z,3.60
2022-08-26T03:03:51.048Z,2.83
2022-08-26T03:06:19.862Z,2.70
2022-08-26T03:08:48.141Z,2.57
2022-08-26T03:11:16.098Z,2.37
2022-08-26T03:13:45.917Z,3.60
2022-08-26T03:16:14.802Z,3.10
2022-08-26T03:18:43.443Z,2.73
2022-08-26T03:21:20.972Z,3.30
2022-08-26T03:23:49.684Z,2.70
2022-08-26T03:26:18.166Z,2.60
2022-08-26T03:29:04.965Z,2.57
2022-08-26T03:31:32.933Z,2.33
2022-08-26T03:34:00.933Z,3.00
2022-08-26T03:36:28.988Z,2.90
2022-08-26T03:38:57.454Z,2.43
2022-08-26T03:41:25.382Z,2.70
2022-08-26T03:43:58.419Z,2.97
2022-08-26T03:46:29.493Z,3.07
2022-08-26T03:48:57.811Z,3.40
2022-08-26T03:51:26.824Z,3.20
2022-08-26T03:53:54.953Z,2.47
2022-08-26T03:56:25.100Z,2.60
2022-08-26T03:58:55.382Z,1.83
2022-08-26T04:01:23.362Z,2.53
2022-08-26T04:04:00.890Z,2.20
2022-08-26T04:06:31.793Z,2.40
2022-08-26T04:09:04.324Z,2.33
2022-08-26T04:11:34.058Z,2.10
2022-08-26T04:14:07.407Z,3.10
2022-08-26T04:16:35.836Z,3.30
2022-08-26T04:19:04.136Z,2.73
2022-08-26T04:21:32.591Z,3.33
2022-08-26T04:24:00.526Z,2.60
2022-08-26T04:26:36.975Z,2.23
2022-08-26T04:29:13.121Z,2.93
2022-08-26T04:31:41.356Z,3.40
2022-08-26T04:34:11.049Z,2.60
2022-08-26T04:36:39.131Z,2.93
2022-08-26T04:39:07.095Z,2.13
2022-08-26T04:41:35.056Z,2.73
2022-08-26T04:44:06.327Z,2.10
2022-08-26T04:46:36.446Z,2.33
2022-08-26T04:49:12.204Z,2.27
2022-08-26T04:51:40.746Z,2.60
2022-08-26T04:54:08.878Z,2.53
2022-08-26T04:56:39.042Z,3.13
2022-08-26T04:59:17.187Z,2.00
2022-08-26T05:01:49.487Z,2.53
2022-08-26T05:04:18.945Z,2.53
2022-08-26T05:06:47.546Z,2.63
2022-08-26T05:09:15.742Z,3.20
2022-08-26T05:11:43.785Z,2.70
2022-08-26T05:14:17.458Z,3.10
2022-08-26T05:16:47.737Z,2.60
2022-08-26T05:19:18.753Z,2.77
2022-08-26T05:21:48.413Z,2.57
2022-08-26T05:24:17.153Z,2.80
2022-08-26T05:26:46.966Z,3.43
2022-08-26T05:29:16.079Z,3.30
2022-08-26T05:31:44.926Z,3.00
2022-08-26T05:34:14.428Z,2.67
2022-08-26T05:36:42.335Z,4.17
2022-08-26T05:39:10.799Z,2.80
2022-08-26T05:41:41.881Z,4.17
2022-08-26T05:44:18.945Z,3.67
2022-08-26T05:46:47.115Z,2.70
2022-08-26T05:49:16.201Z,3.07
2022-08-26T05:51:47.491Z,3.10
2022-08-26T05:54:21.803Z,3.17
2022-08-26T05:56:50.320Z,2.83
2022-08-26T05:59:21.353Z,3.33
2022-08-26T06:01:52.859Z,2.87
2022-08-26T06:04:20.890Z,3.87
2022-08-26T06:06:48.857Z,3.90
2022-08-26T06:09:17.546Z,3.47
2022-08-26T06:11:46.342Z,3.20
2022-08-26T06:14:14.288Z,3.07
2022-08-26T06:16:45.154Z,2.67
2022-08-26T06:19:15.417Z,2.70
2022-08-26T06:21:53.981Z,3.00
2022-08-26T06:24:39.752Z,3.77
2022-08-26T06:27:09.987Z,3.67
2022-08-26T06:29:39.423Z,3.47
2022-08-26T06:32:08.904Z,3.40
2022-08-26T06:34:36.931Z,4.17
2022-08-26T06:37:06.404Z,3.97
2022-08-26T06:39:34.526Z,2.77
2022-08-26T06:42:03.383Z,3.90
2022-08-26T06:44:34.217Z,3.73
2022-08-26T06:47:02.475Z,4.60
2022-08-26T06:49:31.719Z,3.27
2022-08-26T06:51:59.647Z,3.60
2022-08-26T06:54:27.920Z,4.37
2022-08-26T06:56:56.920Z,3.70
2022-08-26T06:59:25.711Z,3.50
2022-08-26T07:01:54.617Z,4.10
2022-08-26T07:04:24.579Z,4.40
2022-08-26T07:06:54.241Z,3.97
2022-08-26T07:09:23.554Z,3.10
2022-08-26T07:11:52.927Z,3.37
2022-08-26T07:14:21.859Z,2.93
2022-08-26T07:16:50.686Z,4.60
2022-08-26T07:19:31.240Z,4.17
2022-08-26T07:22:03.362Z,4.70
2022-08-26T07:24:32.275Z,4.30
2022-08-26T07:27:01.663Z,4.90
2022-08-26T07:29:31.245Z,5.20
2022-08-26T07:31:59.636Z,6.63
2022-08-26T07:34:28.173Z,4.63
2022-08-26T07:36:56.816Z,6.13
2022-08-26T07:39:27.249Z,5.30
2022-08-26T07:41:55.562Z,4.70
2022-08-26T07:44:24.030Z,5.30
2022-08-26T07:46:53.390Z,3.80
2022-08-26T07:49:22.107Z,4.70
2022-08-26T07:51:50.814Z,5.10
2022-08-26T07:54:19.210Z,4.40
2022-08-26T07:56:49.336Z,4.93
2022-08-26T07:59:20.135Z,4.43
2022-08-26T08:01:49.278Z,5.70
2022-08-26T08:04:25.525Z,4.00
2022-08-26T08:06:54.605Z,3.87
2022-08-26T08:09:22.816Z,4.40
2022-08-26T08:11:52.832Z,6.00
2022-08-26T08:14:22.276Z,4.00
2022-08-26T08:16:51.197Z,4.77
2022-08-26T08:19:23.056Z,4.13
2022-08-26T08:21:52.047Z,4.57
2022-08-26T08:24:20.343Z,4.60
2022-08-26T08:26:48.756Z,4.77
2022-08-26T08:29:18.047Z,4.50
2022-08-26T08:31:57.965Z,4.00
2022-08-26T08:34:28.597Z,3.50
2022-08-26T08:36:57.093Z,3.97
2022-08-26T08:39:26.248Z,3.60
2022-08-26T08:42:23.755Z,4.30
2022-08-26T08:44:56.908Z,3.90
2022-08-26T08:47:33.826Z,3.53
2022-08-26T08:50:13.006Z,4.13
2022-08-26T08:52:45.070Z,4.30
2022-08-26T08:55:18.298Z,5.47
2022-08-26T08:58:02.208Z,4.27
2022-08-26T09:00:39.870Z,4.20
2022-08-26T09:03:16.482Z,4.47
2022-08-26T09:05:48.846Z,3.80
2022-08-26T09:08:20.664Z,2.67
2022-08-26T09:10:52.579Z,3.60
2022-08-26T09:13:25.197Z,2.80
2022-08-26T09:16:03.991Z,3.47
2022-08-26T09:18:49.114Z,2.87
2022-08-26T09:21:19.615Z,4.07
2022-08-26T09:23:49.788Z,2.80
2022-08-26T09:26:22.057Z,3.40
2022-08-26T09:28:57.649Z,2.70
2022-08-26T09:31:29.719Z,1.90
2022-08-26T09:34:09.080Z,2.57
2022-08-26T09:36:41.396Z,2.27
2022-08-26T09:39:27.423Z,2.97
2022-08-26T09:42:08.143Z,3.07
2022-08-26T09:44:54.466Z,3.30
2022-08-26T09:47:29.749Z,2.27
2022-08-26T09:50:04.548Z,2.67
2022-08-26T09:52:37.797Z,2.73
2022-08-26T09:55:14.191Z,2.30
2022-08-26T09:57:49.514Z,2.80
2022-08-26T10:00:34.046Z,3.43
2022-08-26T10:03:05.580Z,3.00
2022-08-26T10:05:39.814Z,2.77
2022-08-26T10:08:23.008Z,3.30
2022-08-26T10:10:53.060Z,3.73
2022-08-26T10:13:29.530Z,3.60
2022-08-26T10:16:05.686Z,2.83
2022-08-26T10:18:39.863Z,3.10
2022-08-26T10:21:15.048Z,3.00
2022-08-26T10:23:49.347Z,3.33
2022-08-26T10:26:23.945Z,2.93
2022-08-26T10:28:55.788Z,5.17
2022-08-26T10:31:38.351Z,3.07
2022-08-26T10:34:10.457Z,3.70
2022-08-26T10:37:14.917Z,3.73
2022-08-26T10:39:49.341Z,3.07
2022-08-26T10:42:25.375Z,3.87
2022-08-26T10:45:03.639Z,3.57
2022-08-26T10:47:37.980Z,2.47
2022-08-26T10:50:08.105Z,4.20
2022-08-26T10:52:50.339Z,2.77
2022-08-26T10:55:23.967Z,2.80
2022-08-26T10:58:00.065Z,3.03
2022-08-26T11:00:58.439Z,3.30
2022-08-26T11:03:40.056Z,3.23
2022-08-26T11:06:22.731Z,3.20
2022-08-26T11:08:52.682Z,4.27
2022-08-26T11:11:46.986Z,2.20
2022-08-26T11:14:41.096Z,2.50
2022-08-26T11:17:55.351Z,2.57
2022-08-26T11:20:35.489Z,2.43
2022-08-26T11:23:33.154Z,2.77
2022-08-26T11:26:35.377Z,2.20
2022-08-26T11:29:12.228Z,2.77
2022-08-26T11:31:57.244Z,2.43
2022-08-26T11:34:56.599Z,2.80
2022-08-26T11:37:37.528Z,2.13
2022-08-26T11:40:12.854Z,2.90
2022-08-26T11:42:45.068Z,2.90
2022-08-26T11:45:20.477Z,3.10
2022-08-26T11:47:49.461Z,3.30
2022-08-26T11:50:21.172Z,2.63
2022-08-26T11:52:53.895Z,2.00
2022-08-26T11:55:23.419Z,3.00
2022-08-26T11:57:57.704Z,2.90
2022-08-26T12:00:33.359Z,2.73
2022-08-26T12:03:06.653Z,2.90
2022-08-26T12:05:39.465Z,3.43
2022-08-26T12:08:11.021Z,2.80
2022-08-26T12:10:40.128Z,3.10
2022-08-26T12:13:10.107Z,2.60
2022-08-26T12:15:38.541Z,2.40
2022-08-26T12:18:28.893Z,2.00
2022-08-26T12:21:00.209Z,2.33
2022-08-26T12:23:40.243Z,2.50
2022-08-26T12:26:11.916Z,2.13
2022-08-26T12:28:46.139Z,2.33
2022-08-26T12:31:26.918Z,2.60
2022-08-26T12:33:56.361Z,2.20
2022-08-26T12:36:31.496Z,2.43
2022-08-26T12:39:08.532Z,1.60
2022-08-26T12:41:50.013Z,2.10
2022-08-26T12:44:53.894Z,2.93
2022-08-26T12:47:28.781Z,2.67
2022-08-26T12:50:13.126Z,2.27
2022-08-26T12:52:52.348Z,2.90
2022-08-26T12:55:22.960Z,1.90
2022-08-26T12:57:51.069Z,2.40
2022-08-26T13:00:31.890Z,2.13
2022-08-26T13:03:01.687Z,2.27
2022-08-26T13:05:35.040Z,2.00
2022-08-26T13:08:27.519Z,2.30
2022-08-26T13:11:05.808Z,2.80
2022-08-26T13:13:33.743Z,3.13
2022-08-26T13:16:03.404Z,2.00
2022-08-26T13:18:31.369Z,2.73
2022-08-26T13:20:59.307Z,2.27
2022-08-26T13:23:27.235Z,2.47
2022-08-26T13:25:55.119Z,2.60
2022-08-26T13:28:23.000Z,2.90
2022-08-26T13:30:50.892Z,2.83
2022-08-26T13:33:21.370Z,2.43
2022-08-26T13:35:49.300Z,2.33
2022-08-26T13:38:22.309Z,2.63
2022-08-26T13:41:03.587Z,1.97
2022-08-26T13:43:32.219Z,2.10
2022-08-26T13:46:01.483Z,2.80
2022-08-26T13:48:31.401Z,2.70
2022-08-26T13:50:59.386Z,1.80
2022-08-26T13:53:29.393Z,2.90
2022-08-26T13:55:57.497Z,1.93
2022-08-26T13:58:25.647Z,2.33
2022-08-26T14:00:55.081Z,2.23
2022-08-26T14:03:24.634Z,2.13
2022-08-26T14:05:54.385Z,2.27
2022-08-26T14:08:22.828Z,2.33
2022-08-26T14:10:50.859Z,2.23
2022-08-26T14:13:19.404Z,2.80
2022-08-26T14:15:47.964Z,2.87
2022-08-26T14:18:18.728Z,2.80
2022-08-26T14:20:50.621Z,1.70
2022-08-26T14:23:20.005Z,2.40
2022-08-26T14:25:47.885Z,2.07
2022-08-26T14:28:15.870Z,2.60
2022-08-26T14:30:45.081Z,2.60
2022-08-26T14:33:16.617Z,2.47
2022-08-26T14:35:49.795Z,2.43
2022-08-26T14:38:19.289Z,2.10
2022-08-26T14:40:47.176Z,2.40
2022-08-26T14:43:16.170Z,2.50
2022-08-26T14:45:45.577Z,2.47
2022-08-26T14:48:14.081Z,3.40
2022-08-26T14:50:42.039Z,2.03
2022-08-26T14:53:27.392Z,2.10
2022-08-26T14:55:56.626Z,1.87
2022-08-26T14:58:24.507Z,2.33
2022-08-26T15:00:56.759Z,2.00
2022-08-26T15:03:24.635Z,2.70
2022-08-26T15:05:52.934Z,3.17
2022-08-26T15:08:20.812Z,2.27
2022-08-26T15:10:48.802Z,3.20
2022-08-26T15:13:18.025Z,3.00
2022-08-26T15:15:46.957Z,2.33
2022-08-26T15:18:14.869Z,3.17
2022-08-26T15:20:42.753Z,2.77
2022-08-26T15:23:11.148Z,3.53
2022-08-26T15:25:39.161Z,2.57
2022-08-26T15:28:07.093Z,2.80
2022-08-26T15:30:36.552Z,2.77
2022-08-26T15:33:04.444Z,2.70
2022-08-26T15:35:35.607Z,2.50
2022-08-26T15:38:06.559Z,2.80
2022-08-26T15:40:34.535Z,2.73
2022-08-26T15:43:18.529Z,2.17
2022-08-26T15:45:53.415Z,3.30
2022-08-26T15:48:22.077Z,2.30
2022-08-26T15:50:53.472Z,2.50
2022-08-26T15:53:22.440Z,1.80
2022-08-26T15:55:51.130Z,3.10
2022-08-26T15:58:19.730Z,2.33
2022-08-26T16:00:47.722Z,3.00
2022-08-26T16:03:17.198Z,2.90
2022-08-26T16:05:45.433Z,2.10
2022-08-26T16:08:14.524Z,2.70
2022-08-26T16:10:49.955Z,3.07
2022-08-26T16:13:20.395Z,2.53
2022-08-26T16:15:48.789Z,2.70
2022-08-26T16:18:20.265Z,2.23
2022-08-26T16:21:10.294Z,2.60
2022-08-26T16:23:43.282Z,3.10
2022-08-26T16:26:16.305Z,2.53
2022-08-26T16:28:44.383Z,2.53
2022-08-26T16:31:12.480Z,2.93
2022-08-26T16:33:41.947Z,2.43
2022-08-26T16:36:10.903Z,3.43
2022-08-26T16:38:40.407Z,2.53
2022-08-26T16:41:09.714Z,2.30
2022-08-26T16:43:37.902Z,2.90
2022-08-26T16:46:07.427Z,2.60
2022-08-26T16:48:38.106Z,3.03
2022-08-26T16:51:12.558Z,2.50
2022-08-26T16:53:40.678Z,1.90
2022-08-26T16:56:12.753Z,2.40
2022-08-26T16:58:40.977Z,2.60
2022-08-26T17:01:09.009Z,2.17
2022-08-26T17:03:37.535Z,2.27
2022-08-26T17:06:07.261Z,2.63
2022-08-26T17:08:35.557Z,2.60
2022-08-26T17:11:03.468Z,3.77
2022-08-26T17:13:35.297Z,2.40
2022-08-26T17:16:05.387Z,2.17
2022-08-26T17:18:34.602Z,2.70
2022-08-26T17:21:03.693Z,1.70
2022-08-26T17:23:33.293Z,2.47
2022-08-26T17:26:01.194Z,1.90
2022-08-26T17:28:29.168Z,2.30
2022-08-26T17:30:58.164Z,2.50
2022-08-26T17:33:26.981Z,2.53
2022-08-26T17:35:55.281Z,1.90
2022-08-26T17:38:23.757Z,1.90
2022-08-26T17:40:53.485Z,2.10
2022-08-26T17:43:21.445Z,2.43
2022-08-26T17:45:49.422Z,2.10
2022-08-26T17:48:18.059Z,1.53
2022-08-26T17:50:49.519Z,1.50
2022-08-26T17:53:19.096Z,1.47
2022-08-26T17:55:47.579Z,1.70
2022-08-26T17:58:18.454Z,1.30
2022-08-26T18:00:48.516Z,1.47
2022-08-26T18:03:16.611Z,1.60
2022-08-26T18:05:48.119Z,1.63
2022-08-26T18:08:16.075Z,1.50
2022-08-26T18:10:44.697Z,1.73
2022-08-26T18:13:14.738Z,1.57
2022-08-26T18:15:45.469Z,1.60
2022-08-26T18:18:14.435Z,1.47
2022-08-26T18:20:44.777Z,2.50
2022-08-26T18:23:13.265Z,1.60
2022-08-26T18:25:42.339Z,2.40
2022-08-26T18:28:10.733Z,1.27
2022-08-26T18:30:39.102Z,2.00
2022-08-26T18:33:08.753Z,1.43
2022-08-26T18:35:39.637Z,1.60
2022-08-26T18:38:11.822Z,1.60
2022-08-26T18:40:40.547Z,1.13
2022-08-26T18:43:08.798Z,1.53
2022-08-26T18:45:37.445Z,1.40
2022-08-26T18:48:06.068Z,1.67
2022-08-26T18:50:39.719Z,2.30
2022-08-26T18:53:07.966Z,2.17
2022-08-26T18:55:35.870Z,1.60
2022-08-26T18:58:03.796Z,1.43
2022-08-26T19:00:32.279Z,1.90
2022-08-26T19:03:00.289Z,2.20
2022-08-26T19:05:28.713Z,2.27
2022-08-26T19:07:57.969Z,1.87
2022-08-26T19:10:25.893Z,1.77
2022-08-26T19:12:55.364Z,2.20
2022-08-26T19:15:26.673Z,1.80
2022-08-26T19:17:56.292Z,2.50
2022-08-26T19:20:24.632Z,1.77
2022-08-26T19:22:52.577Z,1.93
2022-08-26T19:25:21.885Z,1.50
2022-08-26T19:27:49.804Z,1.67
2022-08-26T19:30:17.753Z,1.70
2022-08-26T19:32:45.982Z,1.90
2022-08-26T19:35:14.572Z,2.03
2022-08-26T19:37:42.567Z,2.23
2022-08-26T19:40:11.239Z,1.90
2022-08-26T19:42:40.544Z,2.10
2022-08-26T19:45:24.388Z,1.80
2022-08-26T19:47:53.504Z,1.70
2022-08-26T19:50:22.598Z,1.70
2022-08-26T19:52:50.512Z,1.93
2022-08-26T19:55:19.840Z,2.03
2022-08-26T19:57:50.172Z,2.00
2022-08-26T20:00:21.286Z,1.90
2022-08-26T20:02:49.310Z,1.63
2022-08-26T20:05:20.889Z,2.10
2022-08-26T20:07:49.683Z,1.50
2022-08-26T20:10:21.031Z,1.83
2022-08-26T20:12:51.800Z,2.13
2022-08-26T20:15:21.763Z,1.43
2022-08-26T20:17:49.990Z,1.87
2022-08-26T20:20:35.199Z,2.10
2022-08-26T20:23:05.317Z,1.90
2022-08-26T20:25:34.539Z,1.63
2022-08-26T20:28:04.147Z,2.40
2022-08-26T20:30:32.108Z,1.37
2022-08-26T20:33:00.022Z,1.77
2022-08-26T20:35:28.096Z,1.10
2022-08-26T20:37:55.990Z,1.43
2022-08-26T20:40:24.121Z,1.53
2022-08-26T20:42:52.065Z,1.70
2022-08-26T20:45:21.301Z,1.70
2022-08-26T20:47:49.196Z,1.37
2022-08-26T20:50:17.096Z,1.60
2022-08-26T20:52:45.026Z,1.60
2022-08-26T20:55:13.044Z,2.03
2022-08-26T20:57:43.277Z,1.90
2022-08-26T21:00:14.160Z,1.20
2022-08-26T21:02:44.364Z,1.70
2022-08-26T21:05:12.299Z,1.67
2022-08-26T21:07:40.377Z,2.30
2022-08-26T21:10:09.140Z,1.80
2022-08-26T21:12:37.609Z,1.70
2022-08-26T21:15:07.394Z,1.80
2022-08-26T21:17:35.707Z,2.00
2022-08-26T21:20:05.714Z,1.50
2022-08-26T21:22:34.039Z,1.90
2022-08-26T21:25:02.030Z,1.33
2022-08-26T21:27:29.905Z,1.80
2022-08-26T21:29:58.019Z,1.57
2022-08-26T21:32:25.922Z,1.23
2022-08-26T21:34:55.999Z,1.37
2022-08-26T21:37:25.664Z,1.50
2022-08-26T21:39:55.247Z,2.03
2022-08-26T21:42:24.508Z,2.13
2022-08-26T21:44:53.312Z,1.30
2022-08-26T21:47:21.285Z,1.17
2022-08-26T21:49:49.412Z,1.57
2022-08-26T21:52:17.524Z,1.73
2022-08-26T21:54:49.366Z,1.47
2022-08-26T21:57:18.326Z,1.50
2022-08-26T21:59:46.254Z,1.93
2022-08-26T22:02:14.189Z,1.33
2022-08-26T22:04:45.707Z,1.30
2022-08-26T22:07:17.342Z,1.63
2022-08-26T22:09:46.847Z,1.73
2022-08-26T22:12:18.038Z,1.63
2022-08-26T22:14:46.974Z,1.63
2022-08-26T22:17:15.902Z,1.63
2022-08-26T22:19:46.386Z,1.87
2022-08-26T22:22:15.098Z,2.30
2022-08-26T22:24:43.867Z,1.40
2022-08-26T22:27:13.974Z,1.60
2022-08-26T22:29:42.336Z,1.37
2022-08-26T22:32:11.074Z,1.83
2022-08-26T22:34:39.045Z,2.00
2022-08-26T22:37:07.017Z,1.97
2022-08-26T22:39:34.888Z,1.70
2022-08-26T22:42:03.926Z,1.63
2022-08-26T22:44:36.351Z,1.53
2022-08-26T22:47:04.275Z,1.30
2022-08-26T22:49:32.213Z,1.60
2022-08-26T22:52:00.143Z,2.07
2022-08-26T22:54:28.115Z,1.90
2022-08-26T22:56:56.010Z,1.60
2022-08-26T22:59:24.487Z,1.60
2022-08-26T23:01:53.832Z,1.90
2022-08-26T23:04:21.909Z,2.03
2022-08-26T23:06:50.144Z,1.40
2022-08-26T23:09:19.463Z,1.80
2022-08-26T23:11:48.360Z,1.97
2022-08-26T23:14:17.177Z,1.93
2022-08-26T23:16:45.274Z,1.77
2022-08-26T23:19:16.025Z,1.53
2022-08-26T23:21:44.235Z,1.70
2022-08-26T23:24:13.086Z,1.50
2022-08-26T23:26:42.796Z,1.80
2022-08-26T23:29:13.522Z,2.13
2022-08-26T23:31:42.917Z,1.53
2022-08-26T23:34:28.836Z,2.07
2022-08-26T23:37:00.166Z,1.93
2022-08-26T23:39:28.988Z,1.80
2022-08-26T23:41:57.382Z,1.90
2022-08-26T23:44:26.454Z,2.63
2022-08-26T23:46:54.412Z,2.37
2022-08-26T23:49:22.413Z,1.40
2022-08-26T23:52:07.788Z,2.20
2022-08-26T23:54:37.301Z,2.00
2022-08-26T23:57:05.895Z,1.17
2022-08-26T23:59:34.236Z,2.23
